sensor_id;sensor_type;location;lat;lon;timestamp;P1;durP1;ratioP1;P2;durP2;ratioP2
47599;SDS011;33323;52.124;6.018;2023-07-13T00:01:55;6.88;;;2.38;;
47599;SDS011;33323;52.124;6.018;2023-07-13T00:04:23;5.53;;;1.13;;
47599;SDS011;33323;52.124;6.018;2023-07-13T00:06:52;9.05;;;2.08;;
47599;SDS011;33323;52.124;6.018;2023-07-13T00:09:20;11.13;;;1.70;;
47599;SDS011;33323;52.124;6.018;2023-07-13T00:11:52;20.05;;;2.45;;
47599;SDS011;33323;52.124;6.018;2023-07-13T00:14:23;5.80;;;1.88;;
47599;SDS011;33323;52.124;6.018;2023-07-13T00:16:52;7.68;;;1.70;;
47599;SDS011;33323;52.124;6.018;2023-07-13T00:19:20;8.25;;;2.15;;
47599;SDS011;33323;52.124;6.018;2023-07-13T00:21:47;9.05;;;1.58;;
47599;SDS011;33323;52.124;6.018;2023-07-13T00:24:15;10.45;;;1.73;;
47599;SDS011;33323;52.124;6.018;2023-07-13T00:26:50;7.50;;;1.50;;
47599;SDS011;33323;52.124;6.018;2023-07-13T00:29:17;7.82;;;1.63;;
47599;SDS011;33323;52.124;6.018;2023-07-13T00:31:44;5.30;;;1.67;;
47599;SDS011;33323;52.124;6.018;2023-07-13T00:34:12;4.90;;;1.38;;
47599;SDS011;33323;52.124;6.018;2023-07-13T00:36:39;5.32;;;1.50;;
47599;SDS011;33323;52.124;6.018;2023-07-13T00:39:07;7.97;;;2.00;;
47599;SDS011;33323;52.124;6.018;2023-07-13T00:41:34;5.88;;;1.80;;
47599;SDS011;33323;52.124;6.018;2023-07-13T00:44:03;10.00;;;1.35;;
47599;SDS011;33323;52.124;6.018;2023-07-13T00:46:32;8.68;;;1.75;;
47599;SDS011;33323;52.124;6.018;2023-07-13T00:49:02;9.23;;;2.58;;
47599;SDS011;33323;52.124;6.018;2023-07-13T00:51:34;11.55;;;2.72;;
47599;SDS011;33323;52.124;6.018;2023-07-13T00:54:10;4.22;;;1.48;;
47599;SDS011;33323;52.124;6.018;2023-07-13T00:56:41;7.82;;;2.03;;
47599;SDS011;33323;52.124;6.018;2023-07-13T00:59:12;6.95;;;1.17;;
47599;SDS011;33323;52.124;6.018;2023-07-13T01:01:42;4.88;;;2.13;;
47599;SDS011;33323;52.124;6.018;2023-07-13T01:04:09;6.88;;;1.60;;
47599;SDS011;33323;52.124;6.018;2023-07-13T01:06:37;6.72;;;1.45;;
47599;SDS011;33323;52.124;6.018;2023-07-13T01:09:06;7.90;;;2.33;;
47599;SDS011;33323;52.124;6.018;2023-07-13T01:11:36;7.57;;;1.15;;
47599;SDS011;33323;52.124;6.018;2023-07-13T01:14:04;9.98;;;1.70;;
47599;SDS011;33323;52.124;6.018;2023-07-13T01:16:32;5.28;;;1.52;;
47599;SDS011;33323;52.124;6.018;2023-07-13T01:19:03;7.20;;;1.50;;
47599;SDS011;33323;52.124;6.018;2023-07-13T01:22:10;7.20;;;2.10;;
47599;SDS011;33323;52.124;6.018;2023-07-13T01:24:44;5.70;;;1.45;;
47599;SDS011;33323;52.124;6.018;2023-07-13T01:27:15;14.45;;;1.73;;
47599;SDS011;33323;52.124;6.018;2023-07-13T01:29:52;4.80;;;1.25;;
47599;SDS011;33323;52.124;6.018;2023-07-13T01:32:28;6.53;;;2.45;;
47599;SDS011;33323;52.124;6.018;2023-07-13T01:34:58;8.35;;;1.98;;
47599;SDS011;33323;52.124;6.018;2023-07-13T01:37:25;5.20;;;1.85;;
47599;SDS011;33323;52.124;6.018;2023-07-13T01:39:53;9.38;;;2.97;;
47599;SDS011;33323;52.124;6.018;2023-07-13T01:42:20;5.03;;;1.10;;
47599;SDS011;33323;52.124;6.018;2023-07-13T01:44:47;5.57;;;1.30;;
47599;SDS011;33323;52.124;6.018;2023-07-13T01:47:14;10.52;;;1.33;;
47599;SDS011;33323;52.124;6.018;2023-07-13T01:49:41;8.60;;;2.42;;
47599;SDS011;33323;52.124;6.018;2023-07-13T01:52:09;6.15;;;1.52;;
47599;SDS011;33323;52.124;6.018;2023-07-13T01:54:36;8.07;;;1.60;;
47599;SDS011;33323;52.124;6.018;2023-07-13T01:57:03;11.18;;;2.58;;
47599;SDS011;33323;52.124;6.018;2023-07-13T01:59:30;7.18;;;1.67;;
47599;SDS011;33323;52.124;6.018;2023-07-13T02:01:59;7.05;;;1.40;;
47599;SDS011;33323;52.124;6.018;2023-07-13T02:04:27;6.18;;;2.33;;
47599;SDS011;33323;52.124;6.018;2023-07-13T02:06:54;6.85;;;1.55;;
47599;SDS011;33323;52.124;6.018;2023-07-13T02:09:21;10.35;;;1.40;;
47599;SDS011;33323;52.124;6.018;2023-07-13T02:11:49;8.82;;;1.30;;
47599;SDS011;33323;52.124;6.018;2023-07-13T02:14:16;3.58;;;1.60;;
47599;SDS011;33323;52.124;6.018;2023-07-13T02:16:43;6.68;;;1.42;;
47599;SDS011;33323;52.124;6.018;2023-07-13T02:19:10;6.60;;;1.50;;
47599;SDS011;33323;52.124;6.018;2023-07-13T02:21:37;8.40;;;1.67;;
47599;SDS011;33323;52.124;6.018;2023-07-13T02:24:05;5.13;;;0.95;;
47599;SDS011;33323;52.124;6.018;2023-07-13T02:26:33;6.05;;;1.52;;
47599;SDS011;33323;52.124;6.018;2023-07-13T02:29:01;4.40;;;1.40;;
47599;SDS011;33323;52.124;6.018;2023-07-13T02:31:29;4.75;;;1.90;;
47599;SDS011;33323;52.124;6.018;2023-07-13T02:33:56;12.30;;;2.95;;
47599;SDS011;33323;52.124;6.018;2023-07-13T02:36:23;5.05;;;1.27;;
47599;SDS011;33323;52.124;6.018;2023-07-13T02:38:50;7.32;;;1.50;;
47599;SDS011;33323;52.124;6.018;2023-07-13T02:41:17;4.22;;;1.85;;
47599;SDS011;33323;52.124;6.018;2023-07-13T02:43:45;11.45;;;3.08;;
47599;SDS011;33323;52.124;6.018;2023-07-13T02:46:12;4.03;;;1.77;;
47599;SDS011;33323;52.124;6.018;2023-07-13T02:48:40;5.80;;;1.35;;
47599;SDS011;33323;52.124;6.018;2023-07-13T02:51:07;8.75;;;2.85;;
47599;SDS011;33323;52.124;6.018;2023-07-13T02:53:35;6.40;;;1.30;;
47599;SDS011;33323;52.124;6.018;2023-07-13T02:56:03;6.43;;;1.83;;
47599;SDS011;33323;52.124;6.018;2023-07-13T02:58:31;5.50;;;1.63;;
47599;SDS011;33323;52.124;6.018;2023-07-13T03:00:58;6.10;;;1.70;;
47599;SDS011;33323;52.124;6.018;2023-07-13T03:03:26;6.47;;;2.03;;
47599;SDS011;33323;52.124;6.018;2023-07-13T03:05:58;13.02;;;2.55;;
47599;SDS011;33323;52.124;6.018;2023-07-13T03:08:32;6.22;;;1.80;;
47599;SDS011;33323;52.124;6.018;2023-07-13T03:11:00;5.93;;;2.47;;
47599;SDS011;33323;52.124;6.018;2023-07-13T03:13:54;7.75;;;2.47;;
47599;SDS011;33323;52.124;6.018;2023-07-13T03:16:23;5.57;;;2.22;;
47599;SDS011;33323;52.124;6.018;2023-07-13T03:18:51;5.20;;;2.72;;
47599;SDS011;33323;52.124;6.018;2023-07-13T03:21:19;7.85;;;1.48;;
47599;SDS011;33323;52.124;6.018;2023-07-13T03:23:46;7.07;;;2.30;;
47599;SDS011;33323;52.124;6.018;2023-07-13T03:26:16;6.05;;;1.90;;
47599;SDS011;33323;52.124;6.018;2023-07-13T03:28:46;6.13;;;1.90;;
47599;SDS011;33323;52.124;6.018;2023-07-13T03:31:23;9.05;;;2.40;;
47599;SDS011;33323;52.124;6.018;2023-07-13T03:33:56;7.53;;;2.13;;
47599;SDS011;33323;52.124;6.018;2023-07-13T03:36:25;7.70;;;2.55;;
47599;SDS011;33323;52.124;6.018;2023-07-13T03:38:58;4.88;;;1.77;;
47599;SDS011;33323;52.124;6.018;2023-07-13T03:41:40;7.88;;;2.60;;
47599;SDS011;33323;52.124;6.018;2023-07-13T03:44:07;10.40;;;3.03;;
47599;SDS011;33323;52.124;6.018;2023-07-13T03:46:34;11.05;;;2.60;;
47599;SDS011;33323;52.124;6.018;2023-07-13T03:49:03;4.60;;;2.30;;
47599;SDS011;33323;52.124;6.018;2023-07-13T03:51:32;5.10;;;2.13;;
47599;SDS011;33323;52.124;6.018;2023-07-13T03:53:59;9.18;;;2.65;;
47599;SDS011;33323;52.124;6.018;2023-07-13T03:56:27;11.45;;;2.83;;
47599;SDS011;33323;52.124;6.018;2023-07-13T03:58:54;8.10;;;2.10;;
47599;SDS011;33323;52.124;6.018;2023-07-13T04:01:23;11.02;;;3.17;;
47599;SDS011;33323;52.124;6.018;2023-07-13T04:03:51;8.00;;;2.92;;
47599;SDS011;33323;52.124;6.018;2023-07-13T04:06:26;7.68;;;2.22;;
47599;SDS011;33323;52.124;6.018;2023-07-13T04:08:56;5.82;;;3.08;;
47599;SDS011;33323;52.124;6.018;2023-07-13T04:11:27;6.35;;;2.40;;
47599;SDS011;33323;52.124;6.018;2023-07-13T04:13:58;8.25;;;2.33;;
47599;SDS011;33323;52.124;6.018;2023-07-13T04:16:26;6.72;;;3.28;;
47599;SDS011;33323;52.124;6.018;2023-07-13T04:18:54;12.70;;;2.85;;
47599;SDS011;33323;52.124;6.018;2023-07-13T04:21:28;6.50;;;2.33;;
47599;SDS011;33323;52.124;6.018;2023-07-13T04:23:56;8.23;;;3.05;;
47599;SDS011;33323;52.124;6.018;2023-07-13T04:26:24;10.80;;;3.30;;
47599;SDS011;33323;52.124;6.018;2023-07-13T04:28:52;8.98;;;3.42;;
47599;SDS011;33323;52.124;6.018;2023-07-13T04:31:19;11.30;;;3.45;;
47599;SDS011;33323;52.124;6.018;2023-07-13T04:33:47;10.98;;;2.67;;
47599;SDS011;33323;52.124;6.018;2023-07-13T04:36:15;9.27;;;2.78;;
47599;SDS011;33323;52.124;6.018;2023-07-13T04:38:43;6.28;;;2.67;;
47599;SDS011;33323;52.124;6.018;2023-07-13T04:41:10;8.30;;;2.92;;
47599;SDS011;33323;52.124;6.018;2023-07-13T04:43:39;8.48;;;2.60;;
47599;SDS011;33323;52.124;6.018;2023-07-13T04:46:07;7.00;;;2.15;;
47599;SDS011;33323;52.124;6.018;2023-07-13T04:48:38;7.72;;;2.67;;
47599;SDS011;33323;52.124;6.018;2023-07-13T04:51:05;12.52;;;3.60;;
47599;SDS011;33323;52.124;6.018;2023-07-13T04:53:32;18.02;;;3.50;;
47599;SDS011;33323;52.124;6.018;2023-07-13T04:56:01;10.00;;;2.80;;
47599;SDS011;33323;52.124;6.018;2023-07-13T04:58:29;9.13;;;2.67;;
47599;SDS011;33323;52.124;6.018;2023-07-13T05:01:04;11.50;;;2.50;;
47599;SDS011;33323;52.124;6.018;2023-07-13T05:03:32;11.20;;;2.67;;
47599;SDS011;33323;52.124;6.018;2023-07-13T05:06:02;7.47;;;3.30;;
47599;SDS011;33323;52.124;6.018;2023-07-13T05:08:32;6.75;;;2.65;;
47599;SDS011;33323;52.124;6.018;2023-07-13T05:11:00;9.73;;;2.67;;
47599;SDS011;33323;52.124;6.018;2023-07-13T05:13:30;11.15;;;3.40;;
47599;SDS011;33323;52.124;6.018;2023-07-13T05:15:58;12.43;;;2.80;;
47599;SDS011;33323;52.124;6.018;2023-07-13T05:18:28;10.88;;;3.38;;
47599;SDS011;33323;52.124;6.018;2023-07-13T05:21:06;9.55;;;3.67;;
47599;SDS011;33323;52.124;6.018;2023-07-13T05:23:36;16.60;;;4.35;;
47599;SDS011;33323;52.124;6.018;2023-07-13T05:26:03;12.45;;;4.18;;
47599;SDS011;33323;52.124;6.018;2023-07-13T05:28:35;16.45;;;4.10;;
47599;SDS011;33323;52.124;6.018;2023-07-13T05:31:03;11.43;;;4.07;;
47599;SDS011;33323;52.124;6.018;2023-07-13T05:33:31;12.57;;;4.60;;
47599;SDS011;33323;52.124;6.018;2023-07-13T05:35:58;12.48;;;4.30;;
47599;SDS011;33323;52.124;6.018;2023-07-13T05:38:27;15.82;;;4.93;;
47599;SDS011;33323;52.124;6.018;2023-07-13T05:40:54;13.10;;;4.88;;
47599;SDS011;33323;52.124;6.018;2023-07-13T05:43:24;19.45;;;5.00;;
47599;SDS011;33323;52.124;6.018;2023-07-13T05:45:55;17.30;;;5.05;;
47599;SDS011;33323;52.124;6.018;2023-07-13T05:48:23;12.70;;;4.97;;
47599;SDS011;33323;52.124;6.018;2023-07-13T05:50:51;15.23;;;6.57;;
47599;SDS011;33323;52.124;6.018;2023-07-13T05:53:18;10.18;;;4.63;;
47599;SDS011;33323;52.124;6.018;2023-07-13T05:55:46;22.63;;;6.00;;
47599;SDS011;33323;52.124;6.018;2023-07-13T05:58:17;17.33;;;6.65;;
47599;SDS011;33323;52.124;6.018;2023-07-13T06:00:46;14.38;;;6.35;;
47599;SDS011;33323;52.124;6.018;2023-07-13T06:03:14;19.35;;;6.13;;
47599;SDS011;33323;52.124;6.018;2023-07-13T06:05:42;13.48;;;5.35;;
47599;SDS011;33323;52.124;6.018;2023-07-13T06:08:10;21.80;;;6.25;;
47599;SDS011;33323;52.124;6.018;2023-07-13T06:10:37;19.23;;;6.55;;
47599;SDS011;33323;52.124;6.018;2023-07-13T06:13:04;14.02;;;7.00;;
47599;SDS011;33323;52.124;6.018;2023-07-13T06:15:32;16.73;;;6.57;;
47599;SDS011;33323;52.124;6.018;2023-07-13T06:18:00;15.35;;;5.75;;
47599;SDS011;33323;52.124;6.018;2023-07-13T06:20:28;15.27;;;7.50;;
47599;SDS011;33323;52.124;6.018;2023-07-13T06:22:56;17.30;;;7.25;;
47599;SDS011;33323;52.124;6.018;2023-07-13T06:25:24;16.80;;;7.28;;
47599;SDS011;33323;52.124;6.018;2023-07-13T06:27:53;16.60;;;7.75;;
47599;SDS011;33323;52.124;6.018;2023-07-13T06:30:20;20.05;;;8.02;;
47599;SDS011;33323;52.124;6.018;2023-07-13T06:32:48;15.95;;;6.40;;
47599;SDS011;33323;52.124;6.018;2023-07-13T06:35:16;15.05;;;6.63;;
47599;SDS011;33323;52.124;6.018;2023-07-13T06:37:44;16.90;;;6.95;;
47599;SDS011;33323;52.124;6.018;2023-07-13T06:40:11;14.90;;;7.50;;
47599;SDS011;33323;52.124;6.018;2023-07-13T06:42:39;15.90;;;7.35;;
47599;SDS011;33323;52.124;6.018;2023-07-13T06:45:07;10.95;;;7.03;;
47599;SDS011;33323;52.124;6.018;2023-07-13T06:47:35;13.75;;;6.15;;
47599;SDS011;33323;52.124;6.018;2023-07-13T06:50:03;20.13;;;7.10;;
47599;SDS011;33323;52.124;6.018;2023-07-13T06:52:31;19.15;;;7.10;;
47599;SDS011;33323;52.124;6.018;2023-07-13T06:54:59;17.98;;;8.10;;
47599;SDS011;33323;52.124;6.018;2023-07-13T06:57:27;18.98;;;8.15;;
47599;SDS011;33323;52.124;6.018;2023-07-13T06:59:54;16.63;;;8.15;;
47599;SDS011;33323;52.124;6.018;2023-07-13T07:02:22;19.05;;;7.35;;
47599;SDS011;33323;52.124;6.018;2023-07-13T07:04:49;13.10;;;8.23;;
47599;SDS011;33323;52.124;6.018;2023-07-13T07:07:17;14.70;;;8.05;;
47599;SDS011;33323;52.124;6.018;2023-07-13T07:09:45;13.23;;;7.55;;
47599;SDS011;33323;52.124;6.018;2023-07-13T07:12:12;17.83;;;6.90;;
47599;SDS011;33323;52.124;6.018;2023-07-13T07:14:40;16.08;;;7.95;;
47599;SDS011;33323;52.124;6.018;2023-07-13T07:17:08;15.07;;;7.60;;
47599;SDS011;33323;52.124;6.018;2023-07-13T07:19:36;27.73;;;8.43;;
47599;SDS011;33323;52.124;6.018;2023-07-13T07:22:05;17.50;;;8.27;;
47599;SDS011;33323;52.124;6.018;2023-07-13T07:24:33;19.40;;;7.75;;
47599;SDS011;33323;52.124;6.018;2023-07-13T07:27:00;19.25;;;6.82;;
47599;SDS011;33323;52.124;6.018;2023-07-13T07:29:31;15.25;;;7.20;;
47599;SDS011;33323;52.124;6.018;2023-07-13T07:32:02;17.67;;;7.68;;
47599;SDS011;33323;52.124;6.018;2023-07-13T07:34:50;12.73;;;7.03;;
47599;SDS011;33323;52.124;6.018;2023-07-13T07:37:18;14.02;;;6.95;;
47599;SDS011;33323;52.124;6.018;2023-07-13T07:39:49;12.82;;;7.03;;
47599;SDS011;33323;52.124;6.018;2023-07-13T07:42:36;14.25;;;7.78;;
47599;SDS011;33323;52.124;6.018;2023-07-13T07:45:04;16.30;;;6.43;;
47599;SDS011;33323;52.124;6.018;2023-07-13T07:47:32;18.92;;;8.05;;
47599;SDS011;33323;52.124;6.018;2023-07-13T07:50:00;16.17;;;6.88;;
47599;SDS011;33323;52.124;6.018;2023-07-13T07:52:27;15.57;;;8.43;;
47599;SDS011;33323;52.124;6.018;2023-07-13T07:54:55;14.00;;;7.43;;
47599;SDS011;33323;52.124;6.018;2023-07-13T07:57:43;23.58;;;7.72;;
47599;SDS011;33323;52.124;6.018;2023-07-13T08:00:14;16.83;;;8.27;;
47599;SDS011;33323;52.124;6.018;2023-07-13T08:02:46;17.25;;;8.07;;
47599;SDS011;33323;52.124;6.018;2023-07-13T08:05:17;17.10;;;7.97;;
47599;SDS011;33323;52.124;6.018;2023-07-13T08:08:04;16.02;;;7.90;;
47599;SDS011;33323;52.124;6.018;2023-07-13T08:10:34;19.42;;;8.38;;
47599;SDS011;33323;52.124;6.018;2023-07-13T08:13:03;12.13;;;7.78;;
47599;SDS011;33323;52.124;6.018;2023-07-13T08:15:34;12.60;;;7.20;;
47599;SDS011;33323;52.124;6.018;2023-07-13T08:18:01;14.52;;;8.50;;
47599;SDS011;33323;52.124;6.018;2023-07-13T08:20:30;13.90;;;7.50;;
47599;SDS011;33323;52.124;6.018;2023-07-13T08:22:57;19.38;;;7.72;;
47599;SDS011;33323;52.124;6.018;2023-07-13T08:25:25;13.63;;;7.75;;
47599;SDS011;33323;52.124;6.018;2023-07-13T08:27:52;13.68;;;7.15;;
47599;SDS011;33323;52.124;6.018;2023-07-13T08:30:20;12.95;;;7.80;;
47599;SDS011;33323;52.124;6.018;2023-07-13T08:32:48;13.63;;;8.20;;
47599;SDS011;33323;52.124;6.018;2023-07-13T08:35:17;13.98;;;6.47;;
47599;SDS011;33323;52.124;6.018;2023-07-13T08:37:44;12.40;;;6.38;;
47599;SDS011;33323;52.124;6.018;2023-07-13T08:40:12;13.43;;;5.65;;
47599;SDS011;33323;52.124;6.018;2023-07-13T08:48:08;11.02;;;5.38;;
47599;SDS011;33323;52.124;6.018;2023-07-13T08:50:51;14.07;;;5.32;;
47599;SDS011;33323;52.124;6.018;2023-07-13T08:53:33;12.37;;;4.73;;
47599;SDS011;33323;52.124;6.018;2023-07-13T08:56:11;8.57;;;4.05;;
47599;SDS011;33323;52.124;6.018;2023-07-13T08:58:47;9.10;;;4.45;;
47599;SDS011;33323;52.124;6.018;2023-07-13T09:01:24;12.80;;;4.63;;
47599;SDS011;33323;52.124;6.018;2023-07-13T09:04:19;12.32;;;5.45;;
47599;SDS011;33323;52.124;6.018;2023-07-13T09:10:11;9.60;;;5.20;;
47599;SDS011;33323;52.124;6.018;2023-07-13T09:15:59;15.45;;;6.55;;
47599;SDS011;33323;52.124;6.018;2023-07-13T09:18:38;10.80;;;5.05;;
47599;SDS011;33323;52.124;6.018;2023-07-13T09:21:12;9.75;;;6.15;;
47599;SDS011;33323;52.124;6.018;2023-07-13T09:23:49;8.95;;;5.70;;
47599;SDS011;33323;52.124;6.018;2023-07-13T09:26:24;9.13;;;6.50;;
47599;SDS011;33323;52.124;6.018;2023-07-13T09:28:57;11.13;;;5.78;;
47599;SDS011;33323;52.124;6.018;2023-07-13T09:31:53;12.40;;;6.30;;
47599;SDS011;33323;52.124;6.018;2023-07-13T09:34:27;15.55;;;6.32;;
47599;SDS011;33323;52.124;6.018;2023-07-13T09:36:57;15.30;;;5.88;;
47599;SDS011;33323;52.124;6.018;2023-07-13T09:39:29;10.30;;;5.72;;
47599;SDS011;33323;52.124;6.018;2023-07-13T09:44:35;7.50;;;4.10;;
47599;SDS011;33323;52.124;6.018;2023-07-13T09:47:18;7.68;;;3.38;;
47599;SDS011;33323;52.124;6.018;2023-07-13T09:49:54;7.05;;;2.42;;
47599;SDS011;33323;52.124;6.018;2023-07-13T09:52:44;7.10;;;2.70;;
47599;SDS011;33323;52.124;6.018;2023-07-13T09:55:24;7.30;;;1.75;;
47599;SDS011;33323;52.124;6.018;2023-07-13T09:58:20;4.05;;;1.55;;
47599;SDS011;33323;52.124;6.018;2023-07-13T10:00:58;2.65;;;2.05;;
47599;SDS011;33323;52.124;6.018;2023-07-13T10:03:35;6.10;;;1.38;;
47599;SDS011;33323;52.124;6.018;2023-07-13T10:06:13;6.23;;;1.23;;
47599;SDS011;33323;52.124;6.018;2023-07-13T10:08:46;3.78;;;0.90;;
47599;SDS011;33323;52.124;6.018;2023-07-13T10:13:57;2.95;;;0.95;;
47599;SDS011;33323;52.124;6.018;2023-07-13T10:16:34;2.25;;;1.15;;
47599;SDS011;33323;52.124;6.018;2023-07-13T10:19:09;2.97;;;1.13;;
47599;SDS011;33323;52.124;6.018;2023-07-13T10:21:55;2.55;;;1.48;;
47599;SDS011;33323;52.124;6.018;2023-07-13T10:24:29;3.42;;;1.10;;
47599;SDS011;33323;52.124;6.018;2023-07-13T10:27:05;3.75;;;1.20;;
47599;SDS011;33323;52.124;6.018;2023-07-13T10:29:59;4.05;;;1.42;;
47599;SDS011;33323;52.124;6.018;2023-07-13T10:32:42;5.55;;;1.77;;
47599;SDS011;33323;52.124;6.018;2023-07-13T10:35:12;4.43;;;1.58;;
47599;SDS011;33323;52.124;6.018;2023-07-13T10:40:22;3.72;;;1.42;;
47599;SDS011;33323;52.124;6.018;2023-07-13T10:42:56;4.53;;;1.10;;
47599;SDS011;33323;52.124;6.018;2023-07-13T10:45:27;2.97;;;1.23;;
47599;SDS011;33323;52.124;6.018;2023-07-13T10:48:00;5.07;;;1.70;;
47599;SDS011;33323;52.124;6.018;2023-07-13T10:50:28;4.78;;;1.30;;
47599;SDS011;33323;52.124;6.018;2023-07-13T10:53:15;4.93;;;2.00;;
47599;SDS011;33323;52.124;6.018;2023-07-13T10:58:21;5.65;;;1.60;;
47599;SDS011;33323;52.124;6.018;2023-07-13T11:01:11;5.95;;;2.38;;
47599;SDS011;33323;52.124;6.018;2023-07-13T11:03:49;6.38;;;2.22;;
47599;SDS011;33323;52.124;6.018;2023-07-13T11:06:39;2.38;;;1.55;;
47599;SDS011;33323;52.124;6.018;2023-07-13T11:09:30;5.38;;;1.85;;
47599;SDS011;33323;52.124;6.018;2023-07-13T11:15:27;3.58;;;1.65;;
47599;SDS011;33323;52.124;6.018;2023-07-13T11:18:20;6.43;;;1.60;;
47599;SDS011;33323;52.124;6.018;2023-07-13T11:20:52;5.28;;;2.20;;
47599;SDS011;33323;52.124;6.018;2023-07-13T11:24:04;7.20;;;2.67;;
47599;SDS011;33323;52.124;6.018;2023-07-13T11:29:27;5.90;;;2.47;;
47599;SDS011;33323;52.124;6.018;2023-07-13T11:32:22;2.65;;;1.75;;
47599;SDS011;33323;52.124;6.018;2023-07-13T11:34:57;4.80;;;2.00;;
47599;SDS011;33323;52.124;6.018;2023-07-13T11:37:25;4.93;;;1.63;;
47599;SDS011;33323;52.124;6.018;2023-07-13T11:39:55;4.10;;;1.70;;
47599;SDS011;33323;52.124;6.018;2023-07-13T11:42:23;3.42;;;1.38;;
47599;SDS011;33323;52.124;6.018;2023-07-13T11:44:52;4.55;;;1.30;;
47599;SDS011;33323;52.124;6.018;2023-07-13T11:47:39;3.17;;;1.67;;
47599;SDS011;33323;52.124;6.018;2023-07-13T11:50:16;2.75;;;1.17;;
47599;SDS011;33323;52.124;6.018;2023-07-13T11:52:49;2.80;;;1.20;;
47599;SDS011;33323;52.124;6.018;2023-07-13T11:55:21;4.63;;;1.20;;
47599;SDS011;33323;52.124;6.018;2023-07-13T11:57:51;1.75;;;1.02;;
47599;SDS011;33323;52.124;6.018;2023-07-13T12:00:26;4.07;;;1.38;;
47599;SDS011;33323;52.124;6.018;2023-07-13T12:03:00;3.53;;;1.33;;
47599;SDS011;33323;52.124;6.018;2023-07-13T12:05:32;6.68;;;1.85;;
47599;SDS011;33323;52.124;6.018;2023-07-13T12:07:59;5.15;;;1.30;;
47599;SDS011;33323;52.124;6.018;2023-07-13T12:10:55;3.90;;;2.08;;
47599;SDS011;33323;52.124;6.018;2023-07-13T12:13:36;2.55;;;1.48;;
47599;SDS011;33323;52.124;6.018;2023-07-13T12:16:11;3.45;;;1.70;;
47599;SDS011;33323;52.124;6.018;2023-07-13T12:18:53;5.95;;;2.50;;
47599;SDS011;33323;52.124;6.018;2023-07-13T12:21:27;5.03;;;1.77;;
47599;SDS011;33323;52.124;6.018;2023-07-13T12:24:01;3.70;;;1.58;;
47599;SDS011;33323;52.124;6.018;2023-07-13T12:26:30;5.20;;;1.90;;
47599;SDS011;33323;52.124;6.018;2023-07-13T12:29:01;2.63;;;2.20;;
47599;SDS011;33323;52.124;6.018;2023-07-13T12:31:37;4.30;;;1.35;;
47599;SDS011;33323;52.124;6.018;2023-07-13T12:34:14;3.38;;;1.17;;
47599;SDS011;33323;52.124;6.018;2023-07-13T12:36:52;2.88;;;1.23;;
47599;SDS011;33323;52.124;6.018;2023-07-13T12:44:58;3.58;;;1.70;;
47599;SDS011;33323;52.124;6.018;2023-07-13T12:47:42;2.75;;;1.50;;
47599;SDS011;33323;52.124;6.018;2023-07-13T12:50:16;2.45;;;1.42;;
47599;SDS011;33323;52.124;6.018;2023-07-13T12:52:51;5.72;;;1.60;;
47599;SDS011;33323;52.124;6.018;2023-07-13T12:55:22;1.90;;;1.23;;
47599;SDS011;33323;52.124;6.018;2023-07-13T12:57:52;2.80;;;1.70;;
47599;SDS011;33323;52.124;6.018;2023-07-13T13:00:29;2.75;;;1.33;;
47599;SDS011;33323;52.124;6.018;2023-07-13T13:03:11;3.03;;;1.45;;
47599;SDS011;33323;52.124;6.018;2023-07-13T13:05:57;4.50;;;1.58;;
47599;SDS011;33323;52.124;6.018;2023-07-13T13:08:48;4.28;;;2.42;;
47599;SDS011;33323;52.124;6.018;2023-07-13T13:11:27;5.07;;;1.73;;
47599;SDS011;33323;52.124;6.018;2023-07-13T13:13:57;4.28;;;2.08;;
47599;SDS011;33323;52.124;6.018;2023-07-13T13:18:54;4.47;;;2.30;;
47599;SDS011;33323;52.124;6.018;2023-07-13T13:21:25;3.70;;;2.00;;
47599;SDS011;33323;52.124;6.018;2023-07-13T13:23:53;5.45;;;2.00;;
47599;SDS011;33323;52.124;6.018;2023-07-13T13:26:21;4.43;;;2.00;;
47599;SDS011;33323;52.124;6.018;2023-07-13T13:28:49;3.50;;;1.77;;
47599;SDS011;33323;52.124;6.018;2023-07-13T13:31:17;5.38;;;2.15;;
47599;SDS011;33323;52.124;6.018;2023-07-13T13:33:45;3.85;;;2.13;;
47599;SDS011;33323;52.124;6.018;2023-07-13T13:36:15;4.50;;;2.30;;
47599;SDS011;33323;52.124;6.018;2023-07-13T13:38:47;4.80;;;1.70;;
47599;SDS011;33323;52.124;6.018;2023-07-13T13:41:16;8.20;;;2.20;;
47599;SDS011;33323;52.124;6.018;2023-07-13T13:43:45;4.80;;;1.90;;
47599;SDS011;33323;52.124;6.018;2023-07-13T13:46:20;5.60;;;2.28;;
47599;SDS011;33323;52.124;6.018;2023-07-13T13:48:56;7.25;;;1.90;;
47599;SDS011;33323;52.124;6.018;2023-07-13T13:51:24;7.82;;;2.40;;
47599;SDS011;33323;52.124;6.018;2023-07-13T13:53:55;3.75;;;2.05;;
47599;SDS011;33323;52.124;6.018;2023-07-13T13:56:24;6.18;;;1.85;;
47599;SDS011;33323;52.124;6.018;2023-07-13T13:58:53;4.07;;;1.70;;
47599;SDS011;33323;52.124;6.018;2023-07-13T14:01:21;7.45;;;2.30;;
47599;SDS011;33323;52.124;6.018;2023-07-13T14:03:51;6.22;;;2.38;;
47599;SDS011;33323;52.124;6.018;2023-07-13T14:06:19;5.30;;;2.13;;
47599;SDS011;33323;52.124;6.018;2023-07-13T14:08:47;3.60;;;2.03;;
47599;SDS011;33323;52.124;6.018;2023-07-13T14:11:15;4.50;;;1.63;;
47599;SDS011;33323;52.124;6.018;2023-07-13T14:13:50;4.90;;;1.58;;
47599;SDS011;33323;52.124;6.018;2023-07-13T14:16:23;4.40;;;2.17;;
47599;SDS011;33323;52.124;6.018;2023-07-13T14:18:58;10.30;;;2.75;;
47599;SDS011;33323;52.124;6.018;2023-07-13T14:21:28;6.65;;;2.42;;
47599;SDS011;33323;52.124;6.018;2023-07-13T14:23:56;3.90;;;2.13;;
47599;SDS011;33323;52.124;6.018;2023-07-13T14:26:25;4.75;;;1.70;;
47599;SDS011;33323;52.124;6.018;2023-07-13T14:28:55;4.75;;;1.70;;
47599;SDS011;33323;52.124;6.018;2023-07-13T14:31:25;7.20;;;2.10;;
47599;SDS011;33323;52.124;6.018;2023-07-13T14:33:56;4.70;;;1.50;;
47599;SDS011;33323;52.124;6.018;2023-07-13T14:36:28;7.55;;;1.83;;
47599;SDS011;33323;52.124;6.018;2023-07-13T14:39:37;4.10;;;1.73;;
47599;SDS011;33323;52.124;6.018;2023-07-13T14:41:57;5.38;;;2.30;;
47599;SDS011;33323;52.124;6.018;2023-07-13T14:44:29;3.50;;;1.23;;
47599;SDS011;33323;52.124;6.018;2023-07-13T14:46:59;3.63;;;1.33;;
47599;SDS011;33323;52.124;6.018;2023-07-13T14:49:41;5.28;;;2.58;;
47599;SDS011;33323;52.124;6.018;2023-07-13T14:52:11;7.85;;;2.17;;
47599;SDS011;33323;52.124;6.018;2023-07-13T14:54:45;6.10;;;2.33;;
47599;SDS011;33323;52.124;6.018;2023-07-13T14:57:17;2.50;;;1.48;;
47599;SDS011;33323;52.124;6.018;2023-07-13T14:59:46;6.60;;;2.25;;
47599;SDS011;33323;52.124;6.018;2023-07-13T15:02:27;3.35;;;1.40;;
47599;SDS011;33323;52.124;6.018;2023-07-13T15:05:00;5.55;;;1.40;;
47599;SDS011;33323;52.124;6.018;2023-07-13T15:07:30;2.88;;;1.42;;
47599;SDS011;33323;52.124;6.018;2023-07-13T15:09:57;3.50;;;1.70;;
47599;SDS011;33323;52.124;6.018;2023-07-13T15:12:25;6.13;;;1.60;;
47599;SDS011;33323;52.124;6.018;2023-07-13T15:14:52;5.82;;;1.65;;
47599;SDS011;33323;52.124;6.018;2023-07-13T15:17:26;4.35;;;1.55;;
47599;SDS011;33323;52.124;6.018;2023-07-13T15:20:09;3.03;;;1.27;;
47599;SDS011;33323;52.124;6.018;2023-07-13T15:23:00;1.83;;;1.50;;
47599;SDS011;33323;52.124;6.018;2023-07-13T15:25:29;2.70;;;1.48;;
47599;SDS011;33323;52.124;6.018;2023-07-13T15:28:00;2.65;;;1.52;;
47599;SDS011;33323;52.124;6.018;2023-07-13T15:30:29;4.07;;;2.10;;
47599;SDS011;33323;52.124;6.018;2023-07-13T15:33:18;4.93;;;1.17;;
47599;SDS011;33323;52.124;6.018;2023-07-13T15:35:50;5.80;;;2.05;;
47599;SDS011;33323;52.124;6.018;2023-07-13T15:38:21;3.40;;;1.73;;
47599;SDS011;33323;52.124;6.018;2023-07-13T15:40:54;2.97;;;1.90;;
47599;SDS011;33323;52.124;6.018;2023-07-13T15:43:23;3.83;;;1.58;;
47599;SDS011;33323;52.124;6.018;2023-07-13T15:45:52;3.22;;;1.90;;
47599;SDS011;33323;52.124;6.018;2023-07-13T15:48:23;4.05;;;1.60;;